M I D A S
Marine Information and Data Acquisition System
Tripno 2082 of the Zeeleeuw from 2011-04-21 11:06:20 to 2011-04-21 15:38:22
Back to CruiseResearch ActivitiesStationsMapUnderway DataData graphs

EquipmentUnitsComment
TimeDGPSUTC
LatitudeDGPSDM.mWGS84
LongitudeDGPSDM.mWGS84
TemperatureSBE03/SBE38deg celciusITS90
ConductivitySBE21S/mITS90
SalinitySBE21 Practical Salinity Units
ChlorophylAChelsea fluorimeterg/lCalibrated in Aceton
Missing or incorrect values are displayed as -999
Sea surface data collected by the RV Zeeleeuw from 2011-04-21 07:36:17 to 2011-04-21 15:43:30
Time Latitude Longitude Temperature Conductivity Salinity ChlorophylA
2011-04-21 07:37:25 51°13.676 2°55.911 18.2148 0.007858 0.045185 -3.020363
2011-04-21 07:38:25 51°13.701 2°55.821 18.2437 0.007858 0.045185 -3.020363
2011-04-21 07:39:25 51°13.74 2°55.727 18.2512 0.007858 0.045186 -3.020363
2011-04-21 07:40:25 51°13.805 2°55.65 18.2603 0.007858 0.045186 -3.020363
2011-04-21 07:41:25 51°13.887 2°55.625 18.2713 0.007858 0.045186 -3.020363
2011-04-21 07:42:25 51°13.95 2°55.638 18.303 0.007858 0.045186 -3.020363
2011-04-21 07:43:25 51°13.962 2°55.636 18.2733 0.007858 0.045185 -3.020363
2011-04-21 07:44:24 51°13.99 2°55.554 18.2605 0.007858 0.045185 -3.020363
2011-04-21 07:45:24 51°14.093 2°55.45 18.2511 0.007858 0.045185 -3.020363
2011-04-21 07:46:25 51°14.23 2°55.329 18.2681 0.007858 0.045184 -3.020363
2011-04-21 07:47:25 51°14.385 2°55.179 18.1521 0.007858 0.045184 -3.020363
2011-04-21 07:48:24 51°14.548 2°55.011 18.3296 0.007858 0.045183 -3.020363
2011-04-21 07:49:22 51°14.656 2°54.721 18.3488 0.007858 0.045183 -3.020363
2011-04-21 07:50:22 51°14.602 2°54.377 18.2106 0.007858 0.045183 -3.020363
2011-04-21 07:51:21 51°14.474 2°54.068 18.0553 0.007858 0.045183 -3.020363
2011-04-21 07:52:21 51°14.374 2°53.727 18.2193 0.007858 0.045184 -3.020363
2011-04-21 07:53:22 51°14.261 2°53.385 18.2304 0.007858 0.045185 -3.020363
2011-04-21 07:54:20 51°14.145 2°53.061 18.284 0.007858 0.045186 -3.020363
2011-04-21 07:55:22 51°13.996 2°52.739 18.2209 0.007858 0.045187 -3.020363
2011-04-21 07:56:20 51°13.863 2°52.429 18.2845 0.007858 0.045188 -3.020363
2011-04-21 07:57:21 51°13.73 2°52.096 18.2744 0.007858 0.045189 -3.020363
2011-04-21 07:58:21 51°13.589 2°51.777 18.2961 0.007858 0.045189 -3.020363
2011-04-21 07:59:21 51°13.452 2°51.454 18.2881 0.007858 0.04519 -3.020363
2011-04-21 08:00:21 51°13.312 2°51.134 18.3028 0.007858 0.04519 -3.020363
2011-04-21 08:01:22 51°13.186 2°50.79 13.1894 3.723103 26.960569 -3.020363
2011-04-21 08:02:21 51°13.048 2°50.475 12.6283 3.745442 31.348009 -3.020363
2011-04-21 08:03:21 51°12.89 2°50.179 12.5477 3.708367 31.393012 -3.020363
2011-04-21 08:04:22 51°12.747 2°49.856 12.5125 3.71334 31.529084 -3.020363
2011-04-21 08:05:21 51°12.609 2°49.545 12.4813 3.752907 31.93859 -3.020363
2011-04-21 08:06:22 51°12.491 2°49.207 12.4644 3.793824 32.355841 -3.020363
2011-04-21 08:07:21 51°12.395 2°48.859 12.4556 3.811435 32.549811 -3.020363
2011-04-21 08:08:21 51°12.267 2°48.531 12.4607 3.805013 32.504307 -3.020363
2011-04-21 08:09:21 51°12.163 2°48.183 12.4364 3.805842 32.506256 -3.020363
2011-04-21 08:10:21 51°12.058 2°47.836 12.4362 3.826768 32.735234 -3.020363
2011-04-21 08:11:21 51°11.938 2°47.503 12.4414 3.82221 32.682853 -3.020363
2011-04-21 08:12:22 51°11.849 2°47.138 12.4275 3.840236 32.859083 -3.020363
2011-04-21 08:13:21 51°11.733 2°46.808 12.4643 3.840961 32.869749 -3.020363
2011-04-21 08:14:20 51°11.63 2°46.467 12.4203 3.847799 32.910138 -3.020363
2011-04-21 08:15:21 51°11.53 2°46.11 12.3929 3.855155 33.027729 -3.020363
2011-04-21 08:16:20 51°11.426 2°45.771 12.3902 3.868831 33.16589 -3.020363
2011-04-21 08:17:22 51°11.33 2°45.405 12.3687 3.877845 33.271799 -3.020363
2011-04-21 08:18:21 51°11.21 2°45.084 12.3926 3.880228 33.297635 -3.020363
2011-04-21 08:19:21 51°11.123 2°44.735 12.3402 3.886963 33.36282 -3.020363
2011-04-21 08:20:21 51°11.03 2°44.388 12.3496 3.896392 33.49675 -3.020363
2011-04-21 08:21:22 51°10.91 2°44.059 12.3543 3.896392 33.474499 -3.020363
2011-04-21 08:22:22 51°10.837 2°43.706 12.3306 3.897221 33.488574 -3.020363
2011-04-21 08:23:20 51°10.753 2°43.372 12.3327 3.895667 33.492871 -3.020363
2011-04-21 08:24:21 51°10.637 2°43.045 12.3524 3.897532 33.499227 -3.020363
2011-04-21 08:25:21 51°10.576 2°42.69 12.3278 3.900018 33.517678 -3.020363
2011-04-21 08:26:21 51°10.505 2°42.335 12.3208 3.903127 33.568231 -3.020363
2011-04-21 08:27:21 51°10.412 2°41.994 12.3048 3.903542 33.585297 -3.020363
2011-04-21 08:28:21 51°10.308 2°41.668 12.2915 3.909966 33.650016 -3.020363
2011-04-21 08:29:22 51°10.254 2°41.303 12.2575 3.909034 33.663466 -3.020363
2011-04-21 08:30:21 51°10.164 2°40.967 12.2528 3.909863 33.694637 -3.020363
2011-04-21 08:31:21 51°10.113 2°40.603 12.2401 3.909241 33.701054 -3.020363
2011-04-21 08:32:21 51°10.023 2°40.259 12.271 3.910899 33.718541 -3.020363
2011-04-21 08:33:21 51°9.969 2°39.896 12.3181 3.912764 33.698513 -3.020363
2011-04-21 08:34:21 51°9.897 2°39.539 12.321 3.916183 33.701949 -3.020363
2011-04-21 08:35:21 51°9.819 2°39.185 12.3539 3.919395 33.723493 -3.020363
2011-04-21 08:36:21 51°9.774 2°38.864 12.3871 3.919291 33.693913 -3.020363
2011-04-21 08:37:21 51°9.715 2°38.723 12.4326 3.918565 33.658433 -3.020363
2011-04-21 08:38:21 51°9.666 2°38.646 12.479 3.92074 33.641552 -3.020363
2011-04-21 08:39:21 51°9.619 2°38.583 12.5475 3.92447 33.629594 -3.020363
2011-04-21 08:40:21 51°9.576 2°38.499 12.602 3.931101 33.635412 -3.020363
2011-04-21 08:41:21 51°9.541 2°38.407 12.6407 3.931411 33.591715 -3.020363
2011-04-21 08:42:21 51°9.514 2°38.309 12.6664 3.939907 33.64362 -3.020363
2011-04-21 08:43:21 51°9.492 2°38.209 12.6839 3.94343 33.657296 -3.020363
2011-04-21 08:44:21 51°9.477 2°38.107 12.6893 3.945192 33.658783 -3.020363
2011-04-21 08:45:21 51°9.469 2°38.005 12.6943 3.951409 33.712596 -3.020363
2011-04-21 08:46:21 51°9.463 2°37.903 12.697 3.952652 33.72137 -3.020363
2011-04-21 08:47:21 51°9.454 2°37.8 12.6978 3.954207 33.734631 -3.020363
2011-04-21 08:48:21 51°9.442 2°37.698 12.6999 3.95545 33.743403 -3.020363
2011-04-21 08:49:21 51°9.428 2°37.597 12.6972 3.95659 33.752719 -3.020363
2011-04-21 08:50:21 51°9.414 2°37.495 12.6881 3.957005 33.759725 -3.020363
2011-04-21 08:51:22 51°9.402 2°37.389 12.6772 3.957626 33.773303 -3.020363
2011-04-21 08:52:21 51°9.393 2°37.287 12.6755 3.952756 33.7346 -3.020363
2011-04-21 08:53:21 51°9.386 2°37.181 12.6675 3.95659 33.774934 -3.020363
2011-04-21 08:54:21 51°9.381 2°37.076 12.6568 3.951202 33.72899 -3.020363
2011-04-21 08:55:21 51°9.371 2°36.972 12.6549 3.954622 33.768451 -3.020363
2011-04-21 08:56:21 51°9.352 2°36.872 12.7131 3.953792 33.726097 -3.020363
2011-04-21 08:57:21 51°9.325 2°36.777 12.714 3.952755 33.683391 -3.020363
2011-04-21 08:58:20 51°9.294 2°36.687 12.756 3.957522 33.742462 -3.020363
2011-04-21 08:59:20 51°9.259 2°36.595 12.7124 3.954206 33.676583 -3.020363
2011-04-21 09:00:21 51°9.227 2°36.498 12.6483 3.956487 33.763219 -3.020363
2011-04-21 09:01:21 51°9.203 2°36.397 12.6377 3.949544 33.72239 -3.020363
2011-04-21 09:02:22 51°9.192 2°36.291 12.619 3.96084 33.852278 -3.020363
2011-04-21 09:03:21 51°9.189 2°36.192 12.5828 3.951306 33.779058 -3.020363
2011-04-21 09:04:21 51°9.198 2°36.097 12.5612 3.952757 33.825199 -3.020363
2011-04-21 09:05:21 51°9.216 2°36.015 12.5532 3.957939 33.890864 -3.020363
2011-04-21 09:06:20 51°9.23 2°35.947 12.5495 3.940427 33.729022 -3.020363
2011-04-21 09:07:21 51°9.239 2°35.884 12.5479 3.944261 33.768705 -3.020363
2011-04-21 09:08:21 51°9.243 2°35.824 12.5474 3.9511 33.837105 -3.020363
2011-04-21 09:09:21 51°9.254 2°35.747 12.5547 3.937629 33.704618 -3.020363
2011-04-21 09:10:21 51°9.314 2°35.581 12.5604 3.952551 33.847879 -3.020363
2011-04-21 09:11:21 51°9.386 2°35.428 12.5491 3.944157 33.759255 -3.020363
2011-04-21 09:12:21 51°9.433 2°35.358 12.5461 3.947162 33.789484 -3.020363
2011-04-21 09:13:21 51°9.462 2°35.313 12.4969 3.952136 33.85549 -3.020363
2011-04-21 09:14:21 51°9.48 2°35.274 12.4644 3.948924 33.861846 -3.020363
2011-04-21 09:15:21 51°9.49 2°35.234 12.4435 3.944158 33.84329 -3.020363
2011-04-21 09:16:21 51°9.496 2°35.19 12.4286 3.937319 33.797917 -3.020363
2011-04-21 09:17:21 51°9.498 2°35.143 12.4312 3.943433 33.869617 -3.020363
2011-04-21 09:18:21 51°9.498 2°35.095 12.4316 3.936905 33.80322 -3.020363
2011-04-21 09:19:21 51°9.5 2°35.045 12.4052 3.943744 33.87182 -3.020363
2011-04-21 09:20:21 51°9.505 2°34.995 12.3982 3.94447 33.898925 -3.020363
2011-04-21 09:21:21 51°9.514 2°34.946 12.3843 3.942605 33.891903 -3.020363
2011-04-21 09:22:21 51°9.524 2°34.9 12.379 3.934833 33.827464 -3.020363
2011-04-21 09:23:21 51°9.535 2°34.857 12.3629 3.933797 33.821401 -3.020363
2011-04-21 09:24:21 51°9.547 2°34.818 12.3653 3.941051 33.903388 -3.020363
2011-04-21 09:25:21 51°9.567 2°34.791 12.3639 3.932657 33.809697 -3.020363
2011-04-21 09:26:21 51°9.632 2°34.816 12.399 3.938356 33.848071 -3.020363
2011-04-21 09:27:21 51°9.672 2°34.853 12.3943 3.932657 33.760995 -3.020363
2011-04-21 09:28:21 51°9.731 2°34.904 12.4652 3.93504 33.790767 -3.020363
2011-04-21 09:29:21 51°9.85 2°35.002 12.4883 3.933796 33.728731 -3.020363
2011-04-21 09:30:21 51°10.006 2°35.149 12.2624 3.943537 33.857448 -3.020363
2011-04-21 09:31:21 51°10.154 2°35.343 11.876 3.934733 34.047997 -3.020363
2011-04-21 09:32:21 51°10.321 2°35.502 11.8352 3.915981 34.082579 -3.020363
2011-04-21 09:33:21 51°10.46 2°35.711 11.8388 3.914116 34.085863 -3.020363
2011-04-21 09:34:21 51°10.603 2°35.906 11.8965 3.918986 34.132374 -3.020363
2011-04-21 09:35:21 51°10.748 2°36.099 11.9833 3.918156 34.064126 -3.020363
2011-04-21 09:36:21 51°10.884 2°36.306 12.0629 3.929449 34.08824 -3.020363
2011-04-21 09:37:21 51°11.034 2°36.487 12.0625 3.930692 34.045914 -3.020363
2011-04-21 09:38:21 51°11.167 2°36.7 12.035 3.931418 34.069449 -3.020363
2011-04-21 09:39:21 51°11.315 2°36.888 12.0078 3.922196 34.000756 -3.020363
2011-04-21 09:40:21 51°11.436 2°37.119 12.0048 3.925719 34.058453 -3.020363
2011-04-21 09:41:21 51°11.538 2°37.373 12.0226 3.921575 34.015987 -3.020363
2011-04-21 09:42:21 51°11.643 2°37.623 12.032 3.925097 34.033531 -3.020363
2011-04-21 09:43:21 51°11.762 2°37.854 12.0596 3.92261 34.00319 -3.020363
2011-04-21 09:44:21 51°11.843 2°38.125 12.0738 3.901265 33.771929 -3.020363
2011-04-21 09:45:21 51°11.943 2°38.376 12.1058 3.921884 33.956916 -3.020363
2011-04-21 09:46:21 51°12.057 2°38.614 12.128 3.916289 33.873948 -3.020363
2011-04-21 09:47:21 51°12.151 2°38.876 12.174 3.920122 33.88982 -3.020363
2011-04-21 09:48:21 51°12.263 2°39.117 12.207 3.920433 33.852235 -3.020363
2011-04-21 09:49:21 51°12.367 2°39.366 12.202 3.911107 33.743807 -3.020363
2011-04-21 09:50:21 51°12.463 2°39.621 12.2676 3.909138 33.703157 -3.020363
2011-04-21 09:51:21 51°12.577 2°39.857 12.262 3.906547 33.648861 -3.020363
2011-04-21 09:52:21 51°12.675 2°40.106 12.2524 3.888622 33.452963 -3.020363
2011-04-21 09:53:21 51°12.771 2°40.356 12.2551 3.857333 33.182039 -3.020363
2011-04-21 09:54:21 51°12.884 2°40.59 12.2105 3.847801 33.087654 -3.020363
2011-04-21 09:55:21 51°12.976 2°40.849 12.2255 3.852567 33.170644 -3.020363
2011-04-21 09:56:21 51°13.087 2°41.085 12.2479 3.839824 33.018062 -3.020363
2011-04-21 09:57:20 51°13.19 2°41.325 12.2277 3.832676 32.964737 -3.020363
2011-04-21 09:58:21 51°13.287 2°41.58 12.2391 3.816929 32.79809 -3.020363
2011-04-21 09:59:21 51°13.397 2°41.815 12.129 3.80253 32.686599 -3.020363
2011-04-21 10:00:21 51°13.489 2°42.069 12.1485 3.791446 32.657094 -3.020363
2011-04-21 10:01:21 51°13.6 2°42.302 12.0803 3.776322 32.497868 -3.020363
2011-04-21 10:02:21 51°13.695 2°42.553 12.0948 3.754674 32.347186 -3.020363
2011-04-21 10:03:21 51°13.802 2°42.791 12.0937 3.755399 32.329521 -3.020363
2011-04-21 10:04:20 51°13.905 2°43.03 11.978 3.757782 32.404653 -3.020363
2011-04-21 10:05:21 51°13.993 2°43.294 12.0401 3.74297 32.308805 -3.020363
2011-04-21 10:06:21 51°14.088 2°43.55 12.0598 3.742762 32.253097 -3.020363
2011-04-21 10:07:21 51°14.198 2°43.791 11.9991 3.74732 32.287858 -3.020363
2011-04-21 10:08:21 51°14.295 2°44.047 11.9659 3.743903 32.319255 -3.020363
2011-04-21 10:09:21 51°14.386 2°44.309 12.0016 3.738413 32.283704 -3.020363
2011-04-21 10:10:21 51°14.497 2°44.549 11.9571 3.744731 32.318243 -3.020363
2011-04-21 10:11:20 51°14.552 2°44.827 11.9271 3.745146 32.357401 -3.020363
2011-04-21 10:12:21 51°14.598 2°45.122 11.9253 3.749186 32.423279 -3.020363
2011-04-21 10:13:20 51°14.659 2°45.402 11.8903 3.748979 32.431811 -3.020363
2011-04-21 10:14:21 51°14.681 2°45.711 11.9279 3.735203 32.308205 -3.020363
2011-04-21 10:15:21 51°14.739 2°45.999 11.9509 3.734581 32.271534 -3.020363
2011-04-21 10:16:21 51°14.749 2°46.304 11.9567 3.738206 32.298164 -3.020363
2011-04-21 10:17:21 51°14.733 2°46.621 12.0103 3.730437 32.204094 -3.020363
2011-04-21 10:18:21 51°14.725 2°46.938 12.0961 3.730644 32.157706 -3.020363
2011-04-21 10:19:21 51°14.699 2°47.249 12.1292 3.719457 31.982472 -3.020363
2011-04-21 10:20:21 51°14.704 2°47.557 12.14 3.710756 31.878692 -3.020363
2011-04-21 10:21:20 51°14.698 2°47.861 12.1284 3.707338 31.849702 -3.020363
2011-04-21 10:22:21 51°14.693 2°48.174 12.1598 3.702471 31.805389 -3.020363
2011-04-21 10:23:21 51°14.694 2°48.484 12.2613 3.702056 31.782397 -3.020363
2011-04-21 10:24:20 51°14.674 2°48.79 12.1703 3.709926 31.782954 -3.020363
2011-04-21 10:25:21 51°14.687 2°49.105 12.1612 3.690145 31.665786 -3.020363
2011-04-21 10:26:21 51°14.686 2°49.417 12.1477 3.69491 31.722205 -3.020363
2011-04-21 10:27:20 51°14.682 2°49.72 12.1789 3.682792 31.607995 -3.020363
2011-04-21 10:28:21 51°14.704 2°50.028 12.1952 3.683931 31.587595 -3.020363
2011-04-21 10:29:21 51°14.7 2°50.335 12.2169 3.684967 31.590931 -3.020363
2011-04-21 10:30:20 51°14.721 2°50.637 12.219 3.682377 31.560445 -3.020363
2011-04-21 10:31:21 51°14.72 2°50.952 12.2191 3.679892 31.530236 -3.020363
2011-04-21 10:32:21 51°14.735 2°51.259 12.2339 3.683724 31.562393 -3.020363
2011-04-21 10:33:21 51°14.741 2°51.571 12.2514 3.682791 31.536121 -3.020363
2011-04-21 10:34:21 51°14.751 2°51.879 12.2882 3.669535 31.392639 -3.020363
2011-04-21 10:35:21 51°14.755 2°52.19 12.2926 3.676577 31.427173 -3.020363
2011-04-21 10:36:21 51°14.74 2°52.504 12.3067 3.663838 31.311889 -3.020363
2011-04-21 10:37:21 51°14.752 2°52.817 12.3239 3.658349 31.243993 -3.020363
2011-04-21 10:38:21 51°14.735 2°53.132 12.3808 3.670259 31.338413 -3.020363
2011-04-21 10:39:21 51°14.744 2°53.443 12.4331 3.662076 31.211464 -3.020363
2011-04-21 10:40:21 51°14.761 2°53.751 12.4713 3.647681 31.026216 -3.020363
2011-04-21 10:41:21 51°14.739 2°54.066 12.4593 3.631422 30.869062 -3.020363
2011-04-21 10:42:21 51°14.683 2°54.373 12.5238 3.630801 30.862489 -3.020363
2011-04-21 10:43:21 51°14.616 2°54.674 12.4915 3.631007 30.821572 -3.020363
2011-04-21 10:44:21 51°14.521 2°54.96 12.5165 3.611332 30.645157 -3.020363
2011-04-21 10:45:22 51°14.368 2°55.188 12.6675 3.603151 30.558317 -3.020363
2011-04-21 10:46:24 51°14.21 2°55.346 12.8755 3.538124 29.778634 -3.020363
2011-04-21 10:47:25 51°14.086 2°55.439 12.883 3.511204 29.437525 -3.020363
2011-04-21 10:48:24 51°13.98 2°55.511 12.9899 3.428593 28.617072 -3.020363
2011-04-21 10:49:24 51°13.874 2°55.578 12.9888 3.374871 28.058961 -3.020363
2011-04-21 10:50:24 51°13.777 2°55.655 12.9601 3.369593 28.051858 -3.020363
2011-04-21 10:51:24 51°13.725 2°55.746 13.2166 3.273242 27.085195 -3.020363
2011-04-21 10:52:25 51°13.691 2°55.843 13.1091 3.224401 26.542496 -3.020363
2011-04-21 10:53:24 51°13.671 2°55.93 13.1887 3.237232 26.696749 -3.020363
2011-04-21 10:54:23 51°13.662 2°55.958 13.0539 3.23092 26.63445 -3.020363
2011-04-21 10:55:20 51°13.662 2°55.96 12.9406 3.287109 27.229214 -3.020363
2011-04-21 10:56:21 51°13.662 2°55.96 12.9095 3.31857 27.590012 -3.020363
2011-04-21 10:57:20 51°13.662 2°55.96 12.9647 3.329023 27.68311 -3.020363
2011-04-21 10:58:21 51°13.662 2°55.96 12.9612 3.313602 27.517742 -3.020363
2011-04-21 10:59:20 51°13.662 2°55.96 12.958 3.322709 27.595892 -3.020363
2011-04-21 11:00:20 51°13.662 2°55.96 12.9873 3.314223 27.529006 -3.020363
2011-04-21 11:01:21 51°13.662 2°55.96 12.9833 3.3076 27.445964 -3.020363
2011-04-21 11:02:21 51°13.661 2°55.961 12.9805 3.311222 27.48046 -3.020363
2011-04-21 11:03:21 51°13.661 2°55.96 12.97 3.312981 27.502167 -3.020363
2011-04-21 11:04:21 51°13.66 2°55.96 12.9507 3.309463 27.477851 -3.020363
2011-04-21 11:05:25 51°13.676 2°55.901 12.8915 3.322399 27.620289 -3.020363
2011-04-21 11:06:25 51°13.69 2°55.802 12.7954 3.361832 28.034433 -3.020363
2011-04-21 11:07:24 51°13.689 2°55.748 12.7927 3.40106 28.455273 -3.020363
2011-04-21 11:08:25 51°13.678 2°55.735 12.9187 3.365869 28.104596 -3.020363
2011-04-21 11:09:24 51°13.729 2°55.704 12.9568 3.322296 27.637951 -3.020363
2011-04-21 11:10:22 51°13.832 2°55.622 13.044 3.278831 27.169166 -3.020363
2011-04-21 11:11:21 51°13.964 2°55.532 12.9549 3.308427 27.434509 -3.020363
2011-04-21 11:12:22 51°14.104 2°55.437 12.8754 3.35531 27.910817 -3.020363
2011-04-21 11:13:24 51°14.247 2°55.32 12.9236 3.410685 28.478371 -3.020363
2011-04-21 11:14:25 51°14.403 2°55.17 12.8983 3.437909 28.689726 -3.020363
2011-04-21 11:15:24 51°14.566 2°54.975 12.8948 3.484492 29.081837 -3.020363
2011-04-21 11:16:22 51°14.735 2°54.769 12.6422 3.550236 29.771343 -3.020363
2011-04-21 11:17:20 51°14.904 2°54.565 12.5466 3.599629 30.435102 -3.020363
2011-04-21 11:18:21 51°15.101 2°54.469 12.5634 3.609674 30.55787 -3.020363
2011-04-21 11:19:21 51°15.254 2°54.639 12.5045 3.609675 30.586356 -3.020363
2011-04-21 11:20:21 51°15.365 2°54.9 12.4885 3.617649 30.691427 -3.020363
2011-04-21 11:21:21 51°15.482 2°55.158 12.4805 3.630282 30.814034 -3.020363
2011-04-21 11:22:21 51°15.576 2°55.437 12.5008 3.619823 30.718916 -3.020363
2011-04-21 11:23:21 51°15.711 2°55.671 12.4761 3.615267 30.671774 -3.020363
2011-04-21 11:24:21 51°15.807 2°55.952 12.4839 3.612678 30.663434 -3.020363
2011-04-21 11:25:21 51°15.927 2°56.206 12.4544 3.610607 30.627165 -3.020363
2011-04-21 11:26:21 51°16.028 2°56.481 12.4466 3.610401 30.669205 -3.020363
2011-04-21 11:27:20 51°16.127 2°56.75 12.465 3.600874 30.573055 -3.020363
2011-04-21 11:28:21 51°16.223 2°57.035 12.5157 3.606568 30.571717 -3.020363
2011-04-21 11:29:21 51°16.313 2°57.32 12.4988 3.602841 30.535926 -3.020363
2011-04-21 11:30:21 51°16.42 2°57.59 12.3741 3.601909 30.562616 -3.020363
2011-04-21 11:31:21 51°16.497 2°57.886 12.331 3.577991 30.423252 -3.020363
2011-04-21 11:32:21 51°16.619 2°58.14 12.1971 3.573332 30.426548 -3.020363
2011-04-21 11:33:21 51°16.714 2°58.42 12.153 3.571573 30.490193 -3.020363
2011-04-21 11:34:21 51°16.816 2°58.693 12.159 3.557388 30.410238 -3.020363
2011-04-21 11:35:20 51°16.934 2°58.941 12.0948 3.559459 30.429892 -3.020363
2011-04-21 11:36:21 51°17.031 2°59.224 12.1818 3.55801 30.451169 -3.020363
2011-04-21 11:37:21 51°17.148 2°59.473 12.1598 3.566396 30.476815 -3.020363
2011-04-21 11:38:21 51°17.257 2°59.732 12.0785 3.563705 30.480009 -3.020363
2011-04-21 11:39:21 51°17.358 2°60 12.121 3.565465 30.536794 -3.020363
2011-04-21 11:40:21 51°17.473 3°0.255 12.0486 3.568157 30.54409 -3.020363
2011-04-21 11:41:21 51°17.564 3°0.533 12.0706 3.561014 30.522604 -3.020363
2011-04-21 11:42:21 51°17.676 3°0.791 11.9789 3.562463 30.530059 -3.020363
2011-04-21 11:43:21 51°17.761 3°1.076 11.9751 3.556458 30.527866 -3.020363
2011-04-21 11:44:20 51°17.849 3°1.357 11.951 3.553559 30.513642 -3.020363
2011-04-21 11:45:21 51°17.959 3°1.628 11.8633 3.548487 30.512571 -3.020363
2011-04-21 11:46:21 51°18.051 3°1.908 11.9267 3.549005 30.528124 -3.020363
2011-04-21 11:47:21 51°18.152 3°2.175 11.868 3.552007 30.557509 -3.020363
2011-04-21 11:48:21 51°18.252 3°2.448 11.8515 3.549937 30.55544 -3.020363
2011-04-21 11:49:22 51°18.35 3°2.731 11.9433 3.539894 30.483529 -3.020363
2011-04-21 11:50:22 51°18.458 3°2.998 11.8474 3.553974 30.543025 -3.020363
2011-04-21 11:51:22 51°18.555 3°3.273 12.1427 3.552939 30.564284 -3.020363
2011-04-21 11:52:22 51°18.665 3°3.531 12.0569 3.572299 30.572193 -3.020363
2011-04-21 11:53:22 51°18.755 3°3.808 12.1017 3.567122 30.561004 -3.020363
2011-04-21 11:54:22 51°18.864 3°4.064 11.9899 3.574059 30.557962 -3.020363
2011-04-21 11:55:21 51°18.958 3°4.332 11.9074 3.560703 30.558438 -3.020363
2011-04-21 11:56:22 51°19.059 3°4.606 11.9183 3.55532 30.579943 -3.020363
2011-04-21 11:57:21 51°19.159 3°4.87 11.8671 3.556356 30.587704 -3.020363
2011-04-21 11:58:21 51°19.29 3°5.095 11.9745 3.555838 30.556564 -3.020363
2011-04-21 11:59:22 51°19.468 3°5.234 11.9365 3.564638 30.604422 -3.020363
2011-04-21 12:00:21 51°19.641 3°5.367 11.8952 3.560498 30.646434 -3.020363
2011-04-21 12:01:21 51°19.832 3°5.456 11.876 3.562258 30.642652 -3.020363
2011-04-21 12:02:21 51°20.009 3°5.596 11.8556 3.565157 30.673899 -3.020363
2011-04-21 12:03:21 51°20.196 3°5.7 11.8697 3.565467 30.683267 -3.020363
2011-04-21 12:04:21 51°20.371 3°5.841 11.8151 3.562879 30.693397 -3.020363
2011-04-21 12:05:21 51°20.548 3°5.981 11.842 3.563087 30.713914 -3.020363
2011-04-21 12:06:21 51°20.734 3°6.085 11.7682 3.565882 30.735678 -3.020363
2011-04-21 12:07:21 51°20.892 3°6.278 11.6416 3.556668 30.73888 -3.020363
2011-04-21 12:08:21 51°21.008 3°6.404 11.6729 3.555323 30.767549 -3.020363
2011-04-21 12:09:21 51°21.052 3°6.507 11.7017 3.556151 30.761869 -3.020363
2011-04-21 12:10:21 51°21.07 3°6.592 11.9998 3.555322 30.7231 -3.020363
2011-04-21 12:11:21 51°21.093 3°6.674 12.52 3.583378 30.652098 -3.020363
2011-04-21 12:12:21 51°21.122 3°6.752 12.3714 3.613402 30.616572 -3.020363
2011-04-21 12:13:21 51°21.148 3°6.834 12.2495 3.607606 30.749433 -3.020363
2011-04-21 12:14:21 51°21.171 3°6.921 12.5898 3.600359 30.739233 -3.020363
2011-04-21 12:15:21 51°21.198 3°7.004 12.8567 3.630384 30.666344 -3.020363
2011-04-21 12:16:21 51°21.231 3°7.081 12.6944 3.63877 30.614112 -3.020363
2011-04-21 12:17:21 51°21.266 3°7.157 12.42 3.636701 30.731897 -3.020363
2011-04-21 12:18:21 51°21.298 3°7.238 12.0674 3.608228 30.777161 -3.020363
2011-04-21 12:19:21 51°21.332 3°7.32 12.0473 3.595286 30.805655 -3.020363
2011-04-21 12:20:21 51°21.371 3°7.393 12.1481 3.594665 30.798323 -3.020363
2011-04-21 12:21:21 51°21.42 3°7.444 12.3993 3.600359 30.740644 -3.020363
2011-04-21 12:22:21 51°21.476 3°7.479 11.9627 3.616097 30.775596 -3.020363
2011-04-21 12:23:21 51°21.531 3°7.52 11.6878 3.575512 30.80569 -3.020363
2011-04-21 12:24:21 51°21.584 3°7.569 11.6619 3.560293 30.799499 -3.020363
2011-04-21 12:25:21 51°21.637 3°7.612 12.2838 3.556048 30.75944 -3.020363
2011-04-21 12:26:21 51°21.695 3°7.613 12.5319 3.599322 30.673821 -3.020363
2011-04-21 12:27:21 51°21.751 3°7.582 12.1523 3.620652 30.736525 -3.020363
2011-04-21 12:28:21 51°21.804 3°7.524 11.8286 3.598495 30.743426 -3.020363
2011-04-21 12:29:21 51°21.852 3°7.456 11.6457 3.56785 30.797426 -3.020363
2011-04-21 12:30:21 51°21.897 3°7.389 11.6665 3.554805 30.767601 -3.020363
2011-04-21 12:31:21 51°21.94 3°7.323 11.6903 3.552631 30.729491 -3.020363
2011-04-21 12:32:21 51°21.984 3°7.258 11.7314 3.553666 30.725102 -3.020363
2011-04-21 12:33:21 51°22.03 3°7.199 11.8385 3.558635 30.722685 -3.020363
2011-04-21 12:34:21 51°22.077 3°7.146 11.8696 3.568367 30.754466 -3.020363
2011-04-21 12:35:21 51°22.123 3°7.089 11.9412 3.571473 30.736388 -3.020363
2011-04-21 12:36:21 51°22.166 3°7.026 11.8291 3.579549 30.805736 -3.020363
2011-04-21 12:37:21 51°22.209 3°6.963 11.9038 3.57489 30.812616 -3.020363
2011-04-21 12:38:21 51°22.254 3°6.906 12.0528 3.580792 30.801198 -3.020363
2011-04-21 12:39:21 51°22.302 3°6.858 11.7941 3.593941 30.854709 -3.020363
2011-04-21 12:40:21 51°22.35 3°6.812 12.08 3.58483 30.88198 -3.020363
2011-04-21 12:41:21 51°22.397 3°6.765 12.0028 3.599428 30.840815 -3.020363
2011-04-21 12:42:21 51°22.443 3°6.715 11.8586 3.596323 30.933872 -3.020363
2011-04-21 12:43:21 51°22.487 3°6.661 11.8199 3.587627 30.933128 -3.020363
2011-04-21 12:44:21 51°22.532 3°6.611 11.8263 3.584521 30.944331 -3.020363
2011-04-21 12:45:21 51°22.578 3°6.566 11.9356 3.589283 30.932479 -3.020363
2011-04-21 12:46:21 51°22.624 3°6.527 12.1576 3.599844 30.948891 -3.020363
2011-04-21 12:47:21 51°22.67 3°6.487 12.1697 3.619101 30.913507 -3.020363
2011-04-21 12:48:21 51°22.715 3°6.449 12.0844 3.612268 30.933127 -3.020363
2011-04-21 12:49:21 51°22.761 3°6.412 12.3103 3.615375 30.961259 -3.020363
2011-04-21 12:50:21 51°22.806 3°6.379 12.2035 3.627696 30.97377 -3.020363
2011-04-21 12:51:21 51°22.848 3°6.344 12.1392 3.620862 30.959339 -3.020363
2011-04-21 12:52:21 51°22.886 3°6.302 12.1178 3.612786 30.938053 -3.020363
2011-04-21 12:53:21 51°22.926 3°6.265 11.8756 3.602121 30.910602 -3.020363
2011-04-21 12:54:21 51°22.965 3°6.234 11.8006 3.590008 30.948034 -3.020363
2011-04-21 12:55:21 51°23.006 3°6.207 11.7923 3.582139 30.923653 -3.020363
2011-04-21 12:56:21 51°23.045 3°6.179 11.8376 3.58421 30.937036 -3.020363
2011-04-21 12:57:21 51°23.082 3°6.144 11.7973 3.588662 30.949511 -3.020363
2011-04-21 12:58:21 51°23.119 3°6.11 11.8405 3.5839 30.948448 -3.020363
2011-04-21 12:59:21 51°23.157 3°6.123 11.8771 3.587212 30.921982 -3.020363
2011-04-21 13:00:21 51°23.186 3°6.188 11.8863 3.587419 30.89242 -3.020363
2011-04-21 13:01:21 51°23.222 3°6.253 11.8567 3.586591 30.891658 -3.020363
2011-04-21 13:02:21 51°23.268 3°6.308 11.7455 3.583277 30.880011 -3.020363
2011-04-21 13:03:21 51°23.324 3°6.374 11.7554 3.570957 30.860946 -3.020363
2011-04-21 13:04:21 51°23.366 3°6.475 11.8544 3.580275 30.907938 -3.020363
2011-04-21 13:05:21 51°23.366 3°6.617 11.7867 3.581932 30.897242 -3.020363
2011-04-21 13:06:21 51°23.355 3°6.772 11.8311 3.58069 30.909035 -3.020363
2011-04-21 13:07:21 51°23.347 3°6.915 11.8592 3.579654 30.864663 -3.020363
2011-04-21 13:08:21 51°23.339 3°7.05 11.9802 3.593631 30.926761 -3.020363
2011-04-21 13:09:21 51°23.333 3°7.182 11.9759 3.596427 30.909824 -3.020363
2011-04-21 13:10:21 51°23.32 3°7.314 11.8527 3.592596 30.928324 -3.020363
2011-04-21 13:11:21 51°23.296 3°7.444 11.9363 3.58918 30.927183 -3.020363
2011-04-21 13:12:21 51°23.271 3°7.576 11.9189 3.592078 30.922657 -3.020363
2011-04-21 13:13:21 51°23.247 3°7.71 11.9502 3.590214 30.899823 -3.020363
2011-04-21 13:14:21 51°23.222 3°7.842 11.892 3.595702 30.922926 -3.020363
2011-04-21 13:15:21 51°23.177 3°7.93 11.9225 3.595703 30.960902 -3.020363
2011-04-21 13:16:21 51°23.133 3°7.959 11.9901 3.599223 30.944389 -3.020363
2011-04-21 13:17:21 51°23.111 3°7.948 12.0551 3.598187 30.909477 -3.020363
2011-04-21 13:18:21 51°23.111 3°7.886 11.912 3.604192 30.947487 -3.020363
2011-04-21 13:19:21 51°23.126 3°7.784 11.9143 3.590732 30.915516 -3.020363
2011-04-21 13:20:21 51°23.158 3°7.679 11.9261 3.596013 30.950247 -3.020363
2011-04-21 13:21:21 51°23.207 3°7.585 11.8905 3.595185 30.951646 -3.020363
2011-04-21 13:22:22 51°23.277 3°7.523 11.8643 3.595185 30.972459 -3.020363
2011-04-21 13:23:21 51°23.356 3°7.479 11.6819 3.587731 30.962874 -3.020363
2011-04-21 13:24:21 51°23.435 3°7.434 11.6895 3.574375 30.938423 -3.020363
2011-04-21 13:25:21 51°23.514 3°7.387 11.7346 3.570854 30.891611 -3.020363
2011-04-21 13:26:21 51°23.593 3°7.339 11.7034 3.578412 30.927469 -3.020363
2011-04-21 13:27:21 51°23.677 3°7.3 11.7181 3.572821 30.900426 -3.020363
2011-04-21 13:28:21 51°23.763 3°7.268 11.7167 3.57748 30.925005 -3.020363
2011-04-21 13:29:21 51°23.847 3°7.23 11.707 3.575721 30.94631 -3.020363
2011-04-21 13:30:21 51°23.933 3°7.195 11.6314 3.576859 30.922641 -3.020363
2011-04-21 13:31:21 51°24.027 3°7.188 11.6136 3.588665 31.128856 -3.020363
2011-04-21 13:32:21 51°24.123 3°7.187 11.7036 3.594774 31.182631 -3.020363
2011-04-21 13:33:21 51°24.218 3°7.183 11.6165 3.612998 31.314418 -3.020363
2011-04-21 13:34:21 51°24.309 3°7.169 11.6371 3.620765 31.400953 -3.020363
2011-04-21 13:35:21 51°24.397 3°7.147 11.5954 3.619626 31.437689 -3.020363
2011-04-21 13:36:21 51°24.487 3°7.132 11.5583 3.624597 31.505567 -3.020363
2011-04-21 13:37:21 51°24.578 3°7.124 11.5587 3.629775 31.570371 -3.020363
2011-04-21 13:38:21 51°24.671 3°7.119 11.5557 3.634953 31.630802 -3.020363
2011-04-21 13:39:21 51°24.761 3°7.103 11.561 3.638578 31.643622 -3.020363
2011-04-21 13:40:21 51°24.849 3°7.08 11.4866 3.642202 31.703156 -3.020363
2011-04-21 13:41:21 51°24.939 3°7.06 11.4235 3.639718 31.744573 -3.020363
2011-04-21 13:42:21 51°25.033 3°7.053 11.4009 3.641375 31.789011 -3.020363
2011-04-21 13:43:21 51°25.127 3°7.044 11.3913 3.640961 31.809671 -3.020363
2011-04-21 13:44:21 51°25.219 3°7.024 11.3383 3.644172 31.861848 -3.020363
2011-04-21 13:45:21 51°25.312 3°6.999 11.3066 3.640755 31.864654 -3.020363
2011-04-21 13:46:21 51°25.407 3°6.978 11.2765 3.642723 31.916162 -3.020363
2011-04-21 13:47:21 51°25.505 3°6.966 11.2521 3.643863 31.958193 -3.020363
2011-04-21 13:48:21 51°25.603 3°6.954 11.266 3.645002 31.972324 -3.020363
2011-04-21 13:49:21 51°25.7 3°6.934 11.2667 3.652872 32.042276 -3.020363
2011-04-21 13:50:21 51°25.794 3°6.903 11.2665 3.652354 32.028143 -3.020363
2011-04-21 13:51:21 51°25.89 3°6.875 11.255 3.652562 32.048334 -3.020363
2011-04-21 13:52:21 51°25.99 3°6.856 11.2378 3.653287 32.062986 -3.020363
2011-04-21 13:53:21 51°26.091 3°6.843 11.2327 3.653183 32.071076 -3.020363
2011-04-21 13:54:21 51°26.191 3°6.822 11.2093 3.650491 32.05465 -3.020363
2011-04-21 13:55:21 51°26.29 3°6.794 11.1808 3.650595 32.071598 -3.020363
2011-04-21 13:56:21 51°26.387 3°6.759 11.1508 3.645728 32.055174 -3.020363
2011-04-21 13:57:21 51°26.477 3°6.706 11.1365 3.648835 32.106094 -3.020363
2011-04-21 13:58:21 51°26.559 3°6.635 11.1028 3.646453 32.101828 -3.020363
2011-04-21 13:59:21 51°26.643 3°6.565 11.0726 3.647593 32.129756 -3.020363
2011-04-21 14:00:21 51°26.732 3°6.501 11.0304 3.64635 32.145833 -3.020363
2011-04-21 14:01:21 51°26.822 3°6.441 10.9872 3.642312 32.153641 -3.020363
2011-04-21 14:02:21 51°26.912 3°6.381 10.954 3.645937 32.218376 -3.020363
2011-04-21 14:03:21 51°27.001 3°6.317 10.9321 3.643452 32.232375 -3.020363
2011-04-21 14:04:21 51°27.083 3°6.242 10.9137 3.644281 32.256694 -3.020363
2011-04-21 14:05:21 51°27.166 3°6.17 10.9268 3.64397 32.262112 -3.020363
2011-04-21 14:06:21 51°27.254 3°6.104 10.9568 3.642727 32.236787 -3.020363
2011-04-21 14:07:21 51°27.342 3°6.044 11.0803 3.647284 32.263139 -3.020363
2011-04-21 14:08:21 51°27.43 3°5.983 11.0372 3.653807 32.219701 -3.020363
2011-04-21 14:09:21 51°27.513 3°5.914 11.0942 3.649664 32.193627 -3.020363
2011-04-21 14:10:21 51°27.562 3°5.803 11.1089 3.650803 32.152038 -3.020363
2011-04-21 14:11:21 51°27.57 3°5.612 11.2255 3.651424 32.161941 -3.020363
2011-04-21 14:12:21 51°27.485 3°5.406 11.1599 3.654737 32.092313 -3.020363
2011-04-21 14:13:21 51°27.329 3°5.227 11.1872 3.645935 32.057958 -3.020363
2011-04-21 14:14:21 51°27.177 3°5.036 11.1898 3.645831 32.04935 -3.020363
2011-04-21 14:15:21 51°27.046 3°4.811 11.2004 3.646349 32.05517 -3.020363
2011-04-21 14:16:21 51°26.914 3°4.587 11.2243 3.651527 32.085261 -3.020363
2011-04-21 14:17:21 51°26.773 3°4.379 11.114 3.642829 32.053419 -3.020363
2011-04-21 14:18:21 51°26.63 3°4.176 11.0994 3.636305 32.010106 -3.020363
2011-04-21 14:19:21 51°26.49 3°3.969 11.1313 3.63703 32.023282 -3.020363
2011-04-21 14:20:21 51°26.359 3°3.75 11.1682 3.633612 31.967062 -3.020363
2011-04-21 14:21:21 51°26.226 3°3.534 11.2193 3.630815 31.908682 -3.020363
2011-04-21 14:22:21 51°26.067 3°3.363 11.2476 3.625119 31.810083 -3.020363
2011-04-21 14:23:21 51°25.912 3°3.18 11.2418 3.624912 31.790763 -3.020363
2011-04-21 14:24:21 51°25.761 3°2.993 11.2199 3.625326 31.807587 -3.020363
2011-04-21 14:25:21 51°25.616 3°2.792 11.2184 3.619424 31.762053 -3.020363
2011-04-21 14:26:21 51°25.515 3°2.543 11.2695 3.623773 31.80222 -3.020363
2011-04-21 14:27:21 51°25.428 3°2.281 11.2915 3.620148 31.74208 -3.020363
2011-04-21 14:28:21 51°25.273 3°2.102 11.32 3.614453 31.662628 -3.020363
2011-04-21 14:29:21 51°25.113 3°1.926 11.3466 3.620873 31.701179 -3.020363
2011-04-21 14:30:21 51°24.961 3°1.734 11.3743 3.625014 31.713047 -3.020363
2011-04-21 14:31:21 51°24.818 3°1.528 11.3528 3.623254 31.688458 -3.020363
2011-04-21 14:32:21 51°24.666 3°1.331 11.3644 3.620769 31.68073 -3.020363
2011-04-21 14:33:21 51°24.509 3°1.144 11.3759 3.624186 31.705739 -3.020363
2011-04-21 14:34:21 51°24.369 3°0.936 11.3332 3.622943 31.691415 -3.020363
2011-04-21 14:35:21 51°24.222 3°0.742 11.2968 3.613417 31.630132 -3.020363
2011-04-21 14:36:21 51°24.076 3°0.549 11.2771 3.603787 31.564033 -3.020363
2011-04-21 14:37:21 51°23.94 3°0.343 11.2603 3.594157 31.488925 -3.020363
2011-04-21 14:38:21 51°23.793 3°0.159 11.2956 3.587737 31.43164 -3.020363
2011-04-21 14:39:21 51°23.645 2°59.98 11.351 3.586598 31.38716 -3.020363
2011-04-21 14:40:21 51°23.492 2°59.813 11.3836 3.578313 31.262345 -3.020363
2011-04-21 14:41:21 51°23.313 2°59.714 11.3938 3.571272 31.175648 -3.020363
2011-04-21 14:42:21 51°23.121 2°59.679 11.7553 3.561538 31.044727 -3.020363
2011-04-21 14:43:21 51°22.931 2°59.631 11.7119 3.573131 30.881097 -3.020363
2011-04-21 14:44:21 51°22.741 2°59.574 11.7358 3.563295 30.831222 -3.020363
2011-04-21 14:45:21 51°22.555 2°59.505 11.7948 3.560292 30.764342 -3.020363
2011-04-21 14:46:21 51°22.372 2°59.413 11.8755 3.558842 30.696812 -3.020363
2011-04-21 14:47:21 51°22.201 2°59.277 11.8881 3.561637 30.667988 -3.020363
2011-04-21 14:48:21 51°22.028 2°59.142 11.8738 3.562258 30.678198 -3.020363
2011-04-21 14:49:21 51°21.865 2°58.98 11.8888 3.559773 30.658704 -3.020363
2011-04-21 14:50:21 51°21.712 2°58.801 11.9109 3.554492 30.591174 -3.020363
2011-04-21 14:51:21 51°21.575 2°58.594 11.9215 3.565571 30.682123 -3.020363
2011-04-21 14:52:21 51°21.426 2°58.407 11.9478 3.561947 30.637555 -3.020363
2011-04-21 14:53:21 51°21.276 2°58.219 11.9722 3.561325 30.60822 -3.020363
2011-04-21 14:54:21 51°21.137 2°58.013 11.98 3.56236 30.601101 -3.020363
2011-04-21 14:55:21 51°20.99 2°57.822 12.0788 3.559358 30.561857 -3.020363
2011-04-21 14:56:21 51°20.839 2°57.642 12.1588 3.571988 30.586851 -3.020363
2011-04-21 14:57:21 51°20.703 2°57.436 12.1287 3.576855 30.598583 -3.020363
2011-04-21 14:58:21 51°20.571 2°57.223 12.1636 3.575198 30.604681 -3.020363
2011-04-21 14:59:21 51°20.428 2°57.028 12.1837 3.580478 30.615401 -3.020363
2011-04-21 15:00:21 51°20.298 2°56.81 12.1753 3.582032 30.632968 -3.020363
2011-04-21 15:01:21 51°20.155 2°56.613 12.1547 3.582032 30.637196 -3.020363
2011-04-21 15:02:21 51°20.01 2°56.415 12.1582 3.582653 30.648033 -3.020363
2011-04-21 15:03:21 51°19.876 2°56.2 12.1684 3.584931 30.663326 -3.020363
2011-04-21 15:04:21 51°19.746 2°55.979 12.186 3.585656 30.666685 -3.020363
2011-04-21 15:05:21 51°19.601 2°55.782 12.2194 3.583895 30.631647 -3.020363
2011-04-21 15:06:21 51°19.459 2°55.574 12.2369 3.598702 30.744685 -3.020363
2011-04-21 15:07:21 51°19.33 2°55.346 12.2204 3.60243 30.772996 -3.020363
2011-04-21 15:08:21 51°19.188 2°55.14 12.2243 3.602534 30.787408 -3.020363
2011-04-21 15:09:21 51°19.038 2°54.944 12.2137 3.609471 30.851863 -3.020363
2011-04-21 15:10:21 51°18.9 2°54.729 12.2161 3.615892 30.915675 -3.020363
2011-04-21 15:11:21 51°18.755 2°54.526 12.2184 3.624176 30.997229 -3.020363
2011-04-21 15:12:21 51°18.602 2°54.34 12.2161 3.631218 31.062018 -3.020363
2011-04-21 15:13:21 51°18.434 2°54.191 12.2258 3.633496 31.084388 -3.020363
2011-04-21 15:14:21 51°18.26 2°54.055 12.5336 0.078389 0.513357 -3.020363
2011-04-21 15:15:21 51°18.093 2°53.898 12.6674 0.055769 0.360438 -3.020363
2011-04-21 15:16:21 51°17.924 2°53.748 12.737 0.047955 0.308164 -3.020363
2011-04-21 15:17:21 51°17.744 2°53.628 12.8311 0.043328 0.277328 -3.020363
2011-04-21 15:18:21 51°17.567 2°53.496 12.9088 0.040141 0.256129 -3.020363
2011-04-21 15:19:21 51°17.394 2°53.35 13.001 0.037982 0.241759 -3.020363
2011-04-21 15:20:21 51°17.222 2°53.206 13.1545 0.036337 0.230791 -3.020363
2011-04-21 15:21:21 51°17.03 2°53.156 13.2477 0.034897 0.221205 -3.020363
2011-04-21 15:22:21 51°16.831 2°53.164 13.3783 0.033766 0.213643 -3.020363
2011-04-21 15:23:21 51°16.63 2°53.221 13.489 0.032841 0.207439 -3.020363
2011-04-21 15:24:21 51°16.434 2°53.336 13.6242 0.031916 0.201244 -3.020363
2011-04-21 15:25:21 51°16.247 2°53.491 13.6958 0.031196 0.196399 -3.020363
2011-04-21 15:26:21 51°16.059 2°53.64 13.8103 0.030476 0.191557 -3.020363
2011-04-21 15:27:21 51°15.862 2°53.748 13.96 0.029859 0.187403 -3.020363
2011-04-21 15:28:21 51°15.671 2°53.885 14.0164 0.029243 0.183259 -3.020363
2011-04-21 15:29:21 51°15.491 2°54.067 14.1593 0.028729 0.179788 -3.020363
2011-04-21 15:30:21 51°15.31 2°54.245 14.2371 0.028214 0.17632 -3.020363
2011-04-21 15:31:21 51°15.122 2°54.395 14.4096 0.027803 0.173524 -3.020363
2011-04-21 15:32:21 51°14.947 2°54.589 14.4695 0.027392 0.170732 -3.020363
2011-04-21 15:33:21 51°14.773 2°54.783 14.6244 0.026878 0.167305 -3.020363
2011-04-21 15:34:21 51°14.6 2°54.981 14.722 0.026569 0.165181 -3.020363
2011-04-21 15:35:21 51°14.417 2°55.145 14.7856 0.026158 0.162418 -3.020363
2011-04-21 15:36:25 51°14.248 2°55.313 14.8934 0.02585 0.160313 -3.020363
2011-04-21 15:37:25 51°14.097 2°55.433 15.019 0.025541 0.158218 -3.020363
2011-04-21 15:38:23 51°13.956 2°55.536 15.0929 0.025336 0.156773 -3.020363
2011-04-21 15:39:21 51°13.835 2°55.631 15.2236 0.025027 0.154688 -3.020363
2011-04-21 15:40:21 51°13.743 2°55.744 15.3472 0.024719 0.152608 -3.020363
2011-04-21 15:41:23 51°13.694 2°55.851 15.3961 0.024513 0.151174 -3.020363
2011-04-21 15:42:23 51°13.667 2°55.931 15.5038 0.024205 0.149102 -3.020363
2011-04-21 15:43:23 51°13.661 2°55.959 15.5946 0.023999 0.147669 -3.020363